Monday, September 26, 2016, 3:41 AM CDT
Back to Local

KHDC, Hammond, Hammond Municipal Airport

Location: Hammond, LA, United States Lat: 30.521
Local Time: 3:41 AM CDT ( 8:41 GMT) Lon: -90.418
Time Zone: US/Central Elev: 42 ft

Show me the last for .
Show Coded

Time T Td Feel RH Dir Speed Gust Alt SLP Vis Weather Sky Remarks
2016-09-26 03:15 72 70 76 94 - Calm - 30.00 - 10 CLR None
2016-09-26 02:55 72 70 76 94 - Calm - 30.00 - 10 CLR None
2016-09-26 02:35 72 68 76 88 - Calm - 30.00 - 10 CLR None
2016-09-26 02:15 72 68 76 88 - Calm - 30.00 - 7 CLR None
2016-09-26 01:55 72 68 76 88 - Calm - 30.00 - 10 CLR None
2016-09-26 01:35 72 68 76 88 - Calm - 30.01 - 10 CLR None
2016-09-26 01:15 72 68 76 88 - Calm - 30.01 - 10 CLR None
2016-09-26 00:55 73 70 77 88 - Calm - 30.00 - 10 CLR None
2016-09-26 00:35 73 70 77 88 - Calm - 30.01 - 10 CLR None
2016-09-26 00:15 73 70 77 88 - Calm - 30.01 - 10 CLR None
2016-09-25 23:55 73 70 77 88 - Calm - 30.01 - 10 CLR None
2016-09-25 23:35 73 70 77 88 - Calm - 30.01 - 10 CLR None
2016-09-25 23:15 73 70 77 88 - Calm - 30.01 - 10 CLR None
2016-09-25 22:55 73 70 77 88 - Calm - 30.01 - 10 CLR None
2016-09-25 22:35 73 70 77 88 - Calm - 30.01 - 10 CLR None
2016-09-25 22:15 73 70 77 88 - Calm - 30.00 - 10 CLR None
2016-09-25 21:55 73 70 77 88 - Calm - 30.00 - 10 CLR None
2016-09-25 21:35 77 70 81 78 - Calm - 30.01 - 10 CLR None
2016-09-25 21:15 77 70 81 78 - Calm - 30.01 - 10 CLR None
2016-09-25 20:55 77 70 81 78 - Calm - 30.01 - 10 CLR None
2016-09-25 20:35 77 70 81 78 - Calm - 30.01 - 10 CLR None
2016-09-25 20:15 77 70 81 78 - Calm - 30.01 - 10 CLR None
2016-09-25 19:55 79 70 83 74 - Calm - 30.00 - 10 CLR None
2016-09-25 19:35 79 70 83 74 - Calm - 29.99 - 10 CLR None
2016-09-25 19:15 82 68 86 61 - Calm - 29.99 - 10 CLR None
2016-09-25 18:55 82 68 86 61 180° 3 - 29.98 - 10 CLR None
2016-09-25 18:35 86 68 90 55 180° 3 - 29.96 - 10 CLR None
2016-09-25 18:15 88 64 90 45 160° 5 - 29.97 - 10 CLR None
2016-09-25 17:55 90 64 92 43 150° 6 - 29.97 - 10 CLR None
2016-09-25 17:35 90 63 91 40 180° 6 - 29.96 - 10 CLR None
2016-09-25 17:15 91 61 - 36 160° 3 - 29.95 - 10 CLR None
2016-09-25 16:55 91 61 - 36 150° 6 - 29.95 - 10 CLR None
2016-09-25 16:40 91 61 - 36 150° 7 - 29.95 - 10 CLR None
2016-09-25 16:15 91 61 - 36 170° 5 - 29.95 - 10 CLR None
2016-09-25 15:55 93 59 - 32 140° 7 - 29.96 - 10 CLR None
2016-09-25 15:35 93 61 - 34 - Calm - 29.96 - 10 CLR None
2016-09-25 15:15 93 61 - 34 150° 8 - 29.97 - 10 CLR None
2016-09-25 14:55 93 61 - 34 130° 6 - 29.98 - 10 CLR None
2016-09-25 14:35 93 57 - 30 150° 6 - 29.99 - 10 CLR None
2016-09-25 14:15 93 61 - 34 160° 5 - 30.00 - 10 SCT050 SCT065 None
2016-09-25 13:55 95 63 - 34 170° 6 - 30.00 - 10 SCT050 BKN065 None
2016-09-25 13:35 91 64 94 41 180° 7 - 30.01 - 10 SCT050 None
2016-09-25 13:15 93 64 - 38 160° 7 - 30.02 - 10 SCT048 None
2016-09-25 12:55 91 63 - 38 - Calm - 30.02 - 10 CLR None
2016-09-25 12:35 91 63 - 38 210° 6 - 30.04 - 10 CLR None
2016-09-25 12:15 91 64 94 41 160° 6 - 30.04 - 10 CLR None
2016-09-25 11:55 91 64 94 41 150° 6 - 30.05 - 10 CLR None
2016-09-25 11:35 91 64 94 41 - Calm - 30.05 - 10 CLR None
2016-09-25 11:15 90 66 93 46 150° 5 - 30.05 - 10 CLR None
2016-09-25 10:55 90 64 92 43 - Calm - 30.06 - 10 CLR None
2016-09-25 10:35 88 68 92 52 - Calm - 30.06 - 10 CLR None
2016-09-25 10:15 88 70 93 55 - Calm - 30.06 - 10 CLR None
2016-09-25 09:55 86 70 91 58 - Calm - 30.06 - 10 CLR None
2016-09-25 09:35 84 70 89 62 - Calm - 30.06 - 10 CLR None
2016-09-25 09:15 82 70 87 65 - Calm - 30.06 - 10 CLR None
2016-09-25 08:55 81 70 85 69 - Calm - 30.06 - 10 CLR None
2016-09-25 08:35 79 72 83 78 - Calm - 30.06 - 10 CLR None
2016-09-25 08:15 75 70 79 83 - Calm - 30.05 - 7 CLR None
2016-09-25 07:55 72 70 76 94 - Calm - 30.05 - 7 CLR None
2016-09-25 07:35 70 68 - 94 - Calm - 30.05 - 10 CLR None
2016-09-25 07:15 70 66 - 88 - Calm - 30.05 - 10 CLR None
2016-09-25 06:55 70 66 - 88 - Calm - 30.05 - 7 CLR None
2016-09-25 06:35 70 66 - 88 - Calm - 30.04 - 5 BR CLR None
2016-09-25 06:15 70 68 - 94 - Calm - 30.03 - 10 CLR None
2016-09-25 05:55 70 68 - 94 - Calm - 30.03 - 7 CLR None
2016-09-25 05:35 70 68 - 94 - Calm - 30.03 - 7 CLR None
2016-09-25 05:15 70 68 - 94 - Calm - 30.03 - 7 CLR None
2016-09-25 04:55 70 68 - 94 - Calm - 30.02 - 10 CLR None
2016-09-25 04:35 70 68 - 94 - Calm - 30.02 - 10 CLR None
2016-09-25 04:15 70 68 - 94 - Calm - 30.02 - 7 CLR None
2016-09-25 03:55 70 68 - 94 - Calm - 30.02 - 7 CLR None

Support USWX by starting your Amazon purchase here.